sensor_id;sensor_type;location;lat;lon;timestamp;temperature;humidity
50738;DHT22;36703;48.154;17.126;2023-04-06T00:00:06;8.60;32.80
50738;DHT22;36703;48.154;17.126;2023-04-06T00:04:10;8.60;32.70
50738;DHT22;36703;48.154;17.126;2023-04-06T00:08:11;8.60;32.80
50738;DHT22;36703;48.154;17.126;2023-04-06T00:12:13;8.60;32.70
50738;DHT22;36703;48.154;17.126;2023-04-06T00:16:14;8.60;32.70
50738;DHT22;36703;48.154;17.126;2023-04-06T00:20:16;8.70;32.60
50738;DHT22;36703;48.154;17.126;2023-04-06T00:24:18;8.70;32.50
50738;DHT22;36703;48.154;17.126;2023-04-06T00:28:19;8.70;32.50
50738;DHT22;36703;48.154;17.126;2023-04-06T00:32:26;8.70;32.50
50738;DHT22;36703;48.154;17.126;2023-04-06T00:36:27;8.60;32.60
50738;DHT22;36703;48.154;17.126;2023-04-06T00:40:29;8.50;32.70
50738;DHT22;36703;48.154;17.126;2023-04-06T00:44:31;8.50;32.90
50738;DHT22;36703;48.154;17.126;2023-04-06T00:48:33;8.40;33.00
50738;DHT22;36703;48.154;17.126;2023-04-06T00:52:34;8.40;33.10
50738;DHT22;36703;48.154;17.126;2023-04-06T00:56:37;8.40;33.10
50738;DHT22;36703;48.154;17.126;2023-04-06T01:00:38;8.40;33.10
50738;DHT22;36703;48.154;17.126;2023-04-06T01:04:41;8.40;33.10
50738;DHT22;36703;48.154;17.126;2023-04-06T01:08:47;8.50;33.10
50738;DHT22;36703;48.154;17.126;2023-04-06T01:12:55;8.50;33.00
50738;DHT22;36703;48.154;17.126;2023-04-06T01:17:15;8.60;33.10
50738;DHT22;36703;48.154;17.126;2023-04-06T01:21:17;8.50;33.10
50738;DHT22;36703;48.154;17.126;2023-04-06T01:25:35;8.50;33.10
50738;DHT22;36703;48.154;17.126;2023-04-06T01:29:41;8.40;33.10
50738;DHT22;36703;48.154;17.126;2023-04-06T01:33:45;8.50;33.30
50738;DHT22;36703;48.154;17.126;2023-04-06T01:37:51;8.50;33.30
50738;DHT22;36703;48.154;17.126;2023-04-06T01:41:59;8.40;33.30
50738;DHT22;36703;48.154;17.126;2023-04-06T01:46:01;8.40;33.60
50738;DHT22;36703;48.154;17.126;2023-04-06T01:50:08;8.40;33.60
50738;DHT22;36703;48.154;17.126;2023-04-06T01:54:15;8.40;33.60
50738;DHT22;36703;48.154;17.126;2023-04-06T01:58:32;8.40;33.60
50738;DHT22;36703;48.154;17.126;2023-04-06T02:02:35;8.50;33.50
50738;DHT22;36703;48.154;17.126;2023-04-06T02:06:41;8.60;33.50
50738;DHT22;36703;48.154;17.126;2023-04-06T02:10:45;8.60;33.40
50738;DHT22;36703;48.154;17.126;2023-04-06T02:14:55;8.60;33.40
50738;DHT22;36703;48.154;17.126;2023-04-06T02:18:57;8.70;33.50
50738;DHT22;36703;48.154;17.126;2023-04-06T02:22:58;8.70;33.50
50738;DHT22;36703;48.154;17.126;2023-04-06T02:27:01;8.70;33.50
50738;DHT22;36703;48.154;17.126;2023-04-06T02:31:02;8.70;33.60
50738;DHT22;36703;48.154;17.126;2023-04-06T02:35:04;8.60;33.60
50738;DHT22;36703;48.154;17.126;2023-04-06T02:39:08;8.70;34.30
50738;DHT22;36703;48.154;17.126;2023-04-06T02:43:10;8.70;33.70
50738;DHT22;36703;48.154;17.126;2023-04-06T02:47:11;8.70;34.30
50738;DHT22;36703;48.154;17.126;2023-04-06T02:51:15;8.70;33.80
50738;DHT22;36703;48.154;17.126;2023-04-06T02:55:21;8.60;33.90
50738;DHT22;36703;48.154;17.126;2023-04-06T02:59:23;8.60;34.10
50738;DHT22;36703;48.154;17.126;2023-04-06T03:03:35;8.50;34.30
50738;DHT22;36703;48.154;17.126;2023-04-06T03:07:40;8.50;34.50
50738;DHT22;36703;48.154;17.126;2023-04-06T03:11:46;8.40;34.60
50738;DHT22;36703;48.154;17.126;2023-04-06T03:15:48;8.30;34.90
50738;DHT22;36703;48.154;17.126;2023-04-06T03:19:52;8.20;35.10
50738;DHT22;36703;48.154;17.126;2023-04-06T03:23:55;8.20;35.30
50738;DHT22;36703;48.154;17.126;2023-04-06T03:27:57;8.20;35.30
50738;DHT22;36703;48.154;17.126;2023-04-06T03:31:58;8.20;35.50
50738;DHT22;36703;48.154;17.126;2023-04-06T03:36:12;8.20;35.60
50738;DHT22;36703;48.154;17.126;2023-04-06T03:40:17;8.20;35.70
50738;DHT22;36703;48.154;17.126;2023-04-06T03:44:18;8.10;36.00
50738;DHT22;36703;48.154;17.126;2023-04-06T03:48:20;8.10;36.20
50738;DHT22;36703;48.154;17.126;2023-04-06T03:52:22;8.00;36.30
50738;DHT22;36703;48.154;17.126;2023-04-06T03:56:26;8.10;36.50
50738;DHT22;36703;48.154;17.126;2023-04-06T04:00:29;8.10;36.60
50738;DHT22;36703;48.154;17.126;2023-04-06T04:04:30;8.00;36.70
50738;DHT22;36703;48.154;17.126;2023-04-06T04:08:32;8.10;36.80
50738;DHT22;36703;48.154;17.126;2023-04-06T04:12:34;8.00;36.90
50738;DHT22;36703;48.154;17.126;2023-04-06T04:16:36;8.00;36.90
50738;DHT22;36703;48.154;17.126;2023-04-06T04:20:37;7.90;37.10
50738;DHT22;36703;48.154;17.126;2023-04-06T04:24:39;7.80;37.30
50738;DHT22;36703;48.154;17.126;2023-04-06T04:28:40;7.70;37.40
50738;DHT22;36703;48.154;17.126;2023-04-06T04:32:42;7.70;37.50
50738;DHT22;36703;48.154;17.126;2023-04-06T04:36:45;7.80;37.70
50738;DHT22;36703;48.154;17.126;2023-04-06T04:40:52;7.70;37.60
50738;DHT22;36703;48.154;17.126;2023-04-06T04:44:53;7.70;37.90
50738;DHT22;36703;48.154;17.126;2023-04-06T04:49:06;7.70;37.90
50738;DHT22;36703;48.154;17.126;2023-04-06T04:53:08;7.70;38.10
50738;DHT22;36703;48.154;17.126;2023-04-06T04:57:10;7.70;38.20
50738;DHT22;36703;48.154;17.126;2023-04-06T05:01:16;7.70;38.30
50738;DHT22;36703;48.154;17.126;2023-04-06T05:05:19;7.70;38.30
50738;DHT22;36703;48.154;17.126;2023-04-06T05:09:25;7.80;38.40
50738;DHT22;36703;48.154;17.126;2023-04-06T05:13:26;7.70;38.40
50738;DHT22;36703;48.154;17.126;2023-04-06T05:17:29;7.80;38.60
50738;DHT22;36703;48.154;17.126;2023-04-06T05:21:31;7.80;38.70
50738;DHT22;36703;48.154;17.126;2023-04-06T05:25:40;7.80;38.90
50738;DHT22;36703;48.154;17.126;2023-04-06T05:29:53;7.80;39.00
50738;DHT22;36703;48.154;17.126;2023-04-06T05:33:59;7.70;39.60
50738;DHT22;36703;48.154;17.126;2023-04-06T05:38:08;7.70;39.50
50738;DHT22;36703;48.154;17.126;2023-04-06T05:42:12;7.70;39.70
50738;DHT22;36703;48.154;17.126;2023-04-06T05:46:27;7.70;39.70
50738;DHT22;36703;48.154;17.126;2023-04-06T05:50:31;7.70;40.00
50738;DHT22;36703;48.154;17.126;2023-04-06T05:54:35;7.70;40.10
50738;DHT22;36703;48.154;17.126;2023-04-06T05:58:38;7.80;39.80
50738;DHT22;36703;48.154;17.126;2023-04-06T06:02:41;7.90;39.80
50738;DHT22;36703;48.154;17.126;2023-04-06T06:06:49;8.00;39.80
50738;DHT22;36703;48.154;17.126;2023-04-06T06:10:54;7.90;39.80
50738;DHT22;36703;48.154;17.126;2023-04-06T06:14:58;8.00;40.50
50738;DHT22;36703;48.154;17.126;2023-04-06T06:19:02;8.10;39.80
50738;DHT22;36703;48.154;17.126;2023-04-06T06:23:04;8.20;40.40
50738;DHT22;36703;48.154;17.126;2023-04-06T06:27:06;8.30;39.70
50738;DHT22;36703;48.154;17.126;2023-04-06T06:31:09;8.40;39.60
50738;DHT22;36703;48.154;17.126;2023-04-06T06:35:11;8.50;39.60
50738;DHT22;36703;48.154;17.126;2023-04-06T06:39:13;8.60;39.50
50738;DHT22;36703;48.154;17.126;2023-04-06T06:43:14;8.70;39.50
50738;DHT22;36703;48.154;17.126;2023-04-06T06:47:35;8.80;39.40
50738;DHT22;36703;48.154;17.126;2023-04-06T06:51:36;8.80;39.30
50738;DHT22;36703;48.154;17.126;2023-04-06T06:55:37;9.00;39.30
50738;DHT22;36703;48.154;17.126;2023-04-06T06:59:39;9.10;39.20
50738;DHT22;36703;48.154;17.126;2023-04-06T07:03:41;9.00;39.10
50738;DHT22;36703;48.154;17.126;2023-04-06T07:07:43;9.00;39.20
50738;DHT22;36703;48.154;17.126;2023-04-06T07:11:44;9.10;39.20
50738;DHT22;36703;48.154;17.126;2023-04-06T07:15:45;9.20;39.10
50738;DHT22;36703;48.154;17.126;2023-04-06T07:19:47;9.30;39.00
50738;DHT22;36703;48.154;17.126;2023-04-06T07:23:48;9.60;39.00
50738;DHT22;36703;48.154;17.126;2023-04-06T07:27:51;9.60;38.80
50738;DHT22;36703;48.154;17.126;2023-04-06T07:31:54;9.40;38.70
50738;DHT22;36703;48.154;17.126;2023-04-06T07:35:56;9.40;38.80
50738;DHT22;36703;48.154;17.126;2023-04-06T07:39:59;9.40;38.70
50738;DHT22;36703;48.154;17.126;2023-04-06T07:44:01;9.50;38.80
50738;DHT22;36703;48.154;17.126;2023-04-06T07:48:03;9.40;38.60
50738;DHT22;36703;48.154;17.126;2023-04-06T07:52:05;9.40;38.60
50738;DHT22;36703;48.154;17.126;2023-04-06T07:56:08;9.50;38.60
50738;DHT22;36703;48.154;17.126;2023-04-06T08:00:09;9.50;38.40
50738;DHT22;36703;48.154;17.126;2023-04-06T08:04:14;9.50;38.30
50738;DHT22;36703;48.154;17.126;2023-04-06T08:08:15;9.50;38.30
50738;DHT22;36703;48.154;17.126;2023-04-06T08:12:17;9.70;38.20
50738;DHT22;36703;48.154;17.126;2023-04-06T08:16:18;9.90;38.00
50738;DHT22;36703;48.154;17.126;2023-04-06T08:20:20;10.00;37.80
50738;DHT22;36703;48.154;17.126;2023-04-06T08:24:21;10.10;37.80
50738;DHT22;36703;48.154;17.126;2023-04-06T08:28:23;10.30;37.70
50738;DHT22;36703;48.154;17.126;2023-04-06T08:32:24;10.40;37.50
50738;DHT22;36703;48.154;17.126;2023-04-06T08:36:26;10.50;37.10
50738;DHT22;36703;48.154;17.126;2023-04-06T08:40:27;10.60;36.90
50738;DHT22;36703;48.154;17.126;2023-04-06T08:44:29;10.60;36.20
50738;DHT22;36703;48.154;17.126;2023-04-06T08:48:32;10.50;35.90
50738;DHT22;36703;48.154;17.126;2023-04-06T08:52:34;10.50;35.60
50738;DHT22;36703;48.154;17.126;2023-04-06T08:56:37;10.50;35.40
50738;DHT22;36703;48.154;17.126;2023-04-06T09:00:39;10.60;35.40
50738;DHT22;36703;48.154;17.126;2023-04-06T09:04:42;10.80;35.10
50738;DHT22;36703;48.154;17.126;2023-04-06T09:08:44;10.90;34.80
50738;DHT22;36703;48.154;17.126;2023-04-06T09:12:45;11.10;34.50
50738;DHT22;36703;48.154;17.126;2023-04-06T09:16:47;11.30;34.20
50738;DHT22;36703;48.154;17.126;2023-04-06T09:20:56;11.30;33.70
50738;DHT22;36703;48.154;17.126;2023-04-06T09:24:58;11.40;33.50
50738;DHT22;36703;48.154;17.126;2023-04-06T09:29:00;11.50;33.20
50738;DHT22;36703;48.154;17.126;2023-04-06T09:33:02;11.50;32.80
50738;DHT22;36703;48.154;17.126;2023-04-06T09:37:16;11.60;32.90
50738;DHT22;36703;48.154;17.126;2023-04-06T09:41:26;11.70;32.80
50738;DHT22;36703;48.154;17.126;2023-04-06T09:45:28;11.90;32.60
50738;DHT22;36703;48.154;17.126;2023-04-06T09:49:31;12.00;32.40
50738;DHT22;36703;48.154;17.126;2023-04-06T09:53:34;12.20;32.10
50738;DHT22;36703;48.154;17.126;2023-04-06T09:57:45;12.20;31.80
50738;DHT22;36703;48.154;17.126;2023-04-06T10:01:59;12.30;31.90
50738;DHT22;36703;48.154;17.126;2023-04-06T10:06:03;12.50;31.30
50738;DHT22;36703;48.154;17.126;2023-04-06T10:14:08;12.50;31.20
50738;DHT22;36703;48.154;17.126;2023-04-06T10:18:10;13.60;30.70
50738;DHT22;36703;48.154;17.126;2023-04-06T10:22:12;13.50;30.00
50738;DHT22;36703;48.154;17.126;2023-04-06T10:26:20;14.00;30.00
50738;DHT22;36703;48.154;17.126;2023-04-06T10:30:22;14.40;29.60
50738;DHT22;36703;48.154;17.126;2023-04-06T10:34:23;14.70;29.40
50738;DHT22;36703;48.154;17.126;2023-04-06T10:38:36;14.50;29.20
50738;DHT22;36703;48.154;17.126;2023-04-06T10:42:38;14.40;29.10
50738;DHT22;36703;48.154;17.126;2023-04-06T10:46:40;14.70;28.90
50738;DHT22;36703;48.154;17.126;2023-04-06T10:50:46;14.70;28.50
50738;DHT22;36703;48.154;17.126;2023-04-06T10:54:52;14.60;28.60
50738;DHT22;36703;48.154;17.126;2023-04-06T10:58:54;14.60;28.60
50738;DHT22;36703;48.154;17.126;2023-04-06T11:19:20;14.90;28.50
50738;DHT22;36703;48.154;17.126;2023-04-06T11:23:22;15.00;28.40
50738;DHT22;36703;48.154;17.126;2023-04-06T11:27:25;14.80;28.50
50738;DHT22;36703;48.154;17.126;2023-04-06T11:31:37;14.60;28.50
50738;DHT22;36703;48.154;17.126;2023-04-06T11:35:40;14.40;28.60
50738;DHT22;36703;48.154;17.126;2023-04-06T11:39:48;14.30;28.40
50738;DHT22;36703;48.154;17.126;2023-04-06T11:43:54;14.40;28.30
50738;DHT22;36703;48.154;17.126;2023-04-06T11:47:56;14.40;28.20
50738;DHT22;36703;48.154;17.126;2023-04-06T11:52:02;14.60;28.00
50738;DHT22;36703;48.154;17.126;2023-04-06T11:56:04;14.60;27.80
50738;DHT22;36703;48.154;17.126;2023-04-06T12:00:06;14.60;27.80
50738;DHT22;36703;48.154;17.126;2023-04-06T12:16:16;15.00;27.60
50738;DHT22;36703;48.154;17.126;2023-04-06T12:20:20;17.80;26.20
50738;DHT22;36703;48.154;17.126;2023-04-06T12:24:21;17.80;25.50
50738;DHT22;36703;48.154;17.126;2023-04-06T12:28:22;17.80;25.50
50738;DHT22;36703;48.154;17.126;2023-04-06T12:32:27;18.20;25.40
50738;DHT22;36703;48.154;17.126;2023-04-06T12:36:29;18.50;25.10
50738;DHT22;36703;48.154;17.126;2023-04-06T12:40:30;18.40;25.00
50738;DHT22;36703;48.154;17.126;2023-04-06T12:48:34;18.60;25.00
50738;DHT22;36703;48.154;17.126;2023-04-06T12:52:36;19.00;24.00
50738;DHT22;36703;48.154;17.126;2023-04-06T12:56:38;19.00;23.90
50738;DHT22;36703;48.154;17.126;2023-04-06T13:00:39;19.30;23.80
50738;DHT22;36703;48.154;17.126;2023-04-06T13:04:41;19.70;23.80
50738;DHT22;36703;48.154;17.126;2023-04-06T13:08:42;19.80;23.40
50738;DHT22;36703;48.154;17.126;2023-04-06T13:12:44;19.80;23.10
50738;DHT22;36703;48.154;17.126;2023-04-06T13:16:45;19.90;23.30
50738;DHT22;36703;48.154;17.126;2023-04-06T13:20:47;20.80;22.90
50738;DHT22;36703;48.154;17.126;2023-04-06T13:24:48;21.50;22.50
50738;DHT22;36703;48.154;17.126;2023-04-06T13:28:50;21.60;22.30
50738;DHT22;36703;48.154;17.126;2023-04-06T13:32:51;21.80;22.20
50738;DHT22;36703;48.154;17.126;2023-04-06T13:36:53;21.30;22.00
50738;DHT22;36703;48.154;17.126;2023-04-06T13:40:54;20.60;22.40
50738;DHT22;36703;48.154;17.126;2023-04-06T13:44:56;19.80;22.80
50738;DHT22;36703;48.154;17.126;2023-04-06T13:48:57;18.90;23.10
50738;DHT22;36703;48.154;17.126;2023-04-06T13:52:58;18.20;23.60
50738;DHT22;36703;48.154;17.126;2023-04-06T13:57:00;17.50;23.80
50738;DHT22;36703;48.154;17.126;2023-04-06T14:01:05;16.90;24.20
50738;DHT22;36703;48.154;17.126;2023-04-06T14:05:08;16.50;24.30
50738;DHT22;36703;48.154;17.126;2023-04-06T14:09:10;16.10;24.00
50738;DHT22;36703;48.154;17.126;2023-04-06T14:13:11;15.70;24.20
50738;DHT22;36703;48.154;17.126;2023-04-06T14:17:13;15.50;24.20
50738;DHT22;36703;48.154;17.126;2023-04-06T14:21:14;15.40;24.30
50738;DHT22;36703;48.154;17.126;2023-04-06T14:25:15;15.40;24.30
50738;DHT22;36703;48.154;17.126;2023-04-06T14:29:17;15.40;24.30
50738;DHT22;36703;48.154;17.126;2023-04-06T14:33:18;15.40;24.30
50738;DHT22;36703;48.154;17.126;2023-04-06T14:37:20;15.30;24.30
50738;DHT22;36703;48.154;17.126;2023-04-06T14:41:23;15.10;24.40
50738;DHT22;36703;48.154;17.126;2023-04-06T14:45:25;15.00;24.50
50738;DHT22;36703;48.154;17.126;2023-04-06T14:49:27;15.00;24.60
50738;DHT22;36703;48.154;17.126;2023-04-06T14:53:28;15.00;24.60
50738;DHT22;36703;48.154;17.126;2023-04-06T14:57:30;15.10;24.70
50738;DHT22;36703;48.154;17.126;2023-04-06T15:01:35;15.10;24.60
50738;DHT22;36703;48.154;17.126;2023-04-06T15:05:38;15.00;24.70
50738;DHT22;36703;48.154;17.126;2023-04-06T15:09:39;14.90;24.70
50738;DHT22;36703;48.154;17.126;2023-04-06T15:13:41;14.70;24.80
50738;DHT22;36703;48.154;17.126;2023-04-06T15:17:42;14.50;24.90
50738;DHT22;36703;48.154;17.126;2023-04-06T15:21:43;14.40;25.10
50738;DHT22;36703;48.154;17.126;2023-04-06T15:25:45;14.30;25.20
50738;DHT22;36703;48.154;17.126;2023-04-06T15:29:46;14.30;25.30
50738;DHT22;36703;48.154;17.126;2023-04-06T15:33:48;14.30;25.40
50738;DHT22;36703;48.154;17.126;2023-04-06T15:37:49;14.20;25.50
50738;DHT22;36703;48.154;17.126;2023-04-06T15:41:51;14.30;25.60
50738;DHT22;36703;48.154;17.126;2023-04-06T15:45:52;14.10;25.70
50738;DHT22;36703;48.154;17.126;2023-04-06T15:49:53;14.10;25.70
50738;DHT22;36703;48.154;17.126;2023-04-06T15:53:55;14.20;25.80
50738;DHT22;36703;48.154;17.126;2023-04-06T15:57:57;14.10;25.90
50738;DHT22;36703;48.154;17.126;2023-04-06T16:01:58;14.10;26.00
50738;DHT22;36703;48.154;17.126;2023-04-06T16:06:00;14.20;25.90
50738;DHT22;36703;48.154;17.126;2023-04-06T16:10:01;14.20;26.00
50738;DHT22;36703;48.154;17.126;2023-04-06T16:14:04;14.10;26.10
50738;DHT22;36703;48.154;17.126;2023-04-06T16:18:06;14.10;28.20
50738;DHT22;36703;48.154;17.126;2023-04-06T16:22:07;14.00;26.60
50738;DHT22;36703;48.154;17.126;2023-04-06T16:26:15;14.00;26.70
50738;DHT22;36703;48.154;17.126;2023-04-06T16:30:20;13.80;27.00
50738;DHT22;36703;48.154;17.126;2023-04-06T16:34:21;13.80;27.10
50738;DHT22;36703;48.154;17.126;2023-04-06T16:38:22;14.00;27.50
50738;DHT22;36703;48.154;17.126;2023-04-06T16:42:25;13.70;30.20
50738;DHT22;36703;48.154;17.126;2023-04-06T16:46:27;13.50;27.50
50738;DHT22;36703;48.154;17.126;2023-04-06T16:50:34;13.50;27.70
50738;DHT22;36703;48.154;17.126;2023-04-06T16:54:36;13.40;28.00
50738;DHT22;36703;48.154;17.126;2023-04-06T16:58:37;13.20;28.10
50738;DHT22;36703;48.154;17.126;2023-04-06T17:02:39;13.20;28.20
50738;DHT22;36703;48.154;17.126;2023-04-06T17:06:40;13.20;28.30
50738;DHT22;36703;48.154;17.126;2023-04-06T17:10:42;13.10;28.40
50738;DHT22;36703;48.154;17.126;2023-04-06T17:14:43;13.00;28.40
50738;DHT22;36703;48.154;17.126;2023-04-06T17:18:44;13.00;28.40
50738;DHT22;36703;48.154;17.126;2023-04-06T17:22:46;13.00;28.50
50738;DHT22;36703;48.154;17.126;2023-04-06T17:26:49;13.00;28.50
50738;DHT22;36703;48.154;17.126;2023-04-06T17:30:50;13.00;28.50
50738;DHT22;36703;48.154;17.126;2023-04-06T17:34:52;12.90;28.50
50738;DHT22;36703;48.154;17.126;2023-04-06T17:38:54;12.90;28.60
50738;DHT22;36703;48.154;17.126;2023-04-06T17:42:55;12.80;28.80
50738;DHT22;36703;48.154;17.126;2023-04-06T17:46:56;12.70;28.80
50738;DHT22;36703;48.154;17.126;2023-04-06T17:50:58;12.80;28.80
50738;DHT22;36703;48.154;17.126;2023-04-06T17:54:59;12.70;28.90
50738;DHT22;36703;48.154;17.126;2023-04-06T17:59:00;12.60;29.00
50738;DHT22;36703;48.154;17.126;2023-04-06T18:03:02;12.70;29.00
50738;DHT22;36703;48.154;17.126;2023-04-06T18:07:04;12.70;29.00
50738;DHT22;36703;48.154;17.126;2023-04-06T18:11:05;12.60;29.00
50738;DHT22;36703;48.154;17.126;2023-04-06T18:15:07;12.60;29.10
50738;DHT22;36703;48.154;17.126;2023-04-06T18:19:08;12.60;29.10
50738;DHT22;36703;48.154;17.126;2023-04-06T18:23:10;12.60;29.10
50738;DHT22;36703;48.154;17.126;2023-04-06T18:27:11;12.50;29.10
50738;DHT22;36703;48.154;17.126;2023-04-06T18:31:13;12.60;29.20
50738;DHT22;36703;48.154;17.126;2023-04-06T18:35:14;12.50;29.10
50738;DHT22;36703;48.154;17.126;2023-04-06T18:39:16;12.50;29.20
50738;DHT22;36703;48.154;17.126;2023-04-06T18:43:17;12.40;29.20
50738;DHT22;36703;48.154;17.126;2023-04-06T18:47:19;12.40;29.30
50738;DHT22;36703;48.154;17.126;2023-04-06T18:51:20;12.40;29.30
50738;DHT22;36703;48.154;17.126;2023-04-06T18:55:21;12.40;29.30
50738;DHT22;36703;48.154;17.126;2023-04-06T18:59:23;12.40;29.40
50738;DHT22;36703;48.154;17.126;2023-04-06T19:03:24;12.40;29.50
50738;DHT22;36703;48.154;17.126;2023-04-06T19:07:26;12.40;29.60
50738;DHT22;36703;48.154;17.126;2023-04-06T19:11:27;12.30;29.70
50738;DHT22;36703;48.154;17.126;2023-04-06T19:15:29;12.20;29.80
50738;DHT22;36703;48.154;17.126;2023-04-06T19:19:31;12.20;29.90
50738;DHT22;36703;48.154;17.126;2023-04-06T19:23:32;12.20;30.00
50738;DHT22;36703;48.154;17.126;2023-04-06T19:27:33;12.20;30.00
50738;DHT22;36703;48.154;17.126;2023-04-06T19:31:35;12.20;30.00
50738;DHT22;36703;48.154;17.126;2023-04-06T19:35:36;12.20;30.10
50738;DHT22;36703;48.154;17.126;2023-04-06T19:39:38;12.10;30.10
50738;DHT22;36703;48.154;17.126;2023-04-06T19:43:40;12.10;30.30
50738;DHT22;36703;48.154;17.126;2023-04-06T19:47:41;12.00;30.30
50738;DHT22;36703;48.154;17.126;2023-04-06T19:51:42;12.10;30.40
50738;DHT22;36703;48.154;17.126;2023-04-06T19:55:44;12.10;30.40
50738;DHT22;36703;48.154;17.126;2023-04-06T19:59:45;12.10;30.40
50738;DHT22;36703;48.154;17.126;2023-04-06T20:03:46;12.10;30.40
50738;DHT22;36703;48.154;17.126;2023-04-06T20:07:48;12.00;30.50
50738;DHT22;36703;48.154;17.126;2023-04-06T20:11:50;11.90;30.60
50738;DHT22;36703;48.154;17.126;2023-04-06T20:15:54;12.00;30.90
50738;DHT22;36703;48.154;17.126;2023-04-06T20:19:55;11.90;31.00
50738;DHT22;36703;48.154;17.126;2023-04-06T20:23:57;11.80;31.20
50738;DHT22;36703;48.154;17.126;2023-04-06T20:27:58;11.80;31.30
50738;DHT22;36703;48.154;17.126;2023-04-06T20:31:59;11.80;31.50
50738;DHT22;36703;48.154;17.126;2023-04-06T20:36:01;11.70;31.80
50738;DHT22;36703;48.154;17.126;2023-04-06T20:40:03;11.60;32.00
50738;DHT22;36703;48.154;17.126;2023-04-06T20:44:05;11.50;32.20
50738;DHT22;36703;48.154;17.126;2023-04-06T20:48:07;11.50;32.40
50738;DHT22;36703;48.154;17.126;2023-04-06T20:52:08;11.50;32.50
50738;DHT22;36703;48.154;17.126;2023-04-06T20:56:09;11.50;32.50
50738;DHT22;36703;48.154;17.126;2023-04-06T21:00:11;11.50;32.70
50738;DHT22;36703;48.154;17.126;2023-04-06T21:04:12;11.40;33.00
50738;DHT22;36703;48.154;17.126;2023-04-06T21:08:14;11.30;33.20
50738;DHT22;36703;48.154;17.126;2023-04-06T21:12:15;11.30;33.40
50738;DHT22;36703;48.154;17.126;2023-04-06T21:16:16;11.30;33.50
50738;DHT22;36703;48.154;17.126;2023-04-06T21:20:18;11.30;33.50
50738;DHT22;36703;48.154;17.126;2023-04-06T21:24:19;11.30;33.60
50738;DHT22;36703;48.154;17.126;2023-04-06T21:28:23;11.20;33.70
50738;DHT22;36703;48.154;17.126;2023-04-06T21:32:25;11.20;34.10
50738;DHT22;36703;48.154;17.126;2023-04-06T21:36:26;11.10;34.30
50738;DHT22;36703;48.154;17.126;2023-04-06T21:40:28;11.10;34.40
50738;DHT22;36703;48.154;17.126;2023-04-06T21:44:30;11.30;34.40
50738;DHT22;36703;48.154;17.126;2023-04-06T21:48:31;11.20;34.40
50738;DHT22;36703;48.154;17.126;2023-04-06T21:52:32;11.10;34.40
50738;DHT22;36703;48.154;17.126;2023-04-06T21:56:34;11.10;34.60
50738;DHT22;36703;48.154;17.126;2023-04-06T22:00:35;11.10;34.90
50738;DHT22;36703;48.154;17.126;2023-04-06T22:04:36;11.10;34.80
50738;DHT22;36703;48.154;17.126;2023-04-06T22:08:38;11.00;34.90
50738;DHT22;36703;48.154;17.126;2023-04-06T22:12:39;11.00;35.10
50738;DHT22;36703;48.154;17.126;2023-04-06T22:16:41;11.00;35.00
50738;DHT22;36703;48.154;17.126;2023-04-06T22:20:42;11.00;35.20
50738;DHT22;36703;48.154;17.126;2023-04-06T22:24:43;11.00;35.30
50738;DHT22;36703;48.154;17.126;2023-04-06T22:28:45;11.00;35.30
50738;DHT22;36703;48.154;17.126;2023-04-06T22:32:46;10.90;35.40
50738;DHT22;36703;48.154;17.126;2023-04-06T22:36:48;10.90;35.50
50738;DHT22;36703;48.154;17.126;2023-04-06T22:40:49;10.90;35.40
50738;DHT22;36703;48.154;17.126;2023-04-06T22:44:51;11.00;35.40
50738;DHT22;36703;48.154;17.126;2023-04-06T22:48:52;11.20;35.70
50738;DHT22;36703;48.154;17.126;2023-04-06T22:52:53;10.80;35.60
50738;DHT22;36703;48.154;17.126;2023-04-06T22:56:55;10.90;35.70
50738;DHT22;36703;48.154;17.126;2023-04-06T23:00:56;10.90;35.70
50738;DHT22;36703;48.154;17.126;2023-04-06T23:04:58;10.80;35.70
50738;DHT22;36703;48.154;17.126;2023-04-06T23:08:59;10.80;35.70
50738;DHT22;36703;48.154;17.126;2023-04-06T23:13:00;10.80;35.70
50738;DHT22;36703;48.154;17.126;2023-04-06T23:17:02;10.80;35.80
50738;DHT22;36703;48.154;17.126;2023-04-06T23:21:06;10.80;35.90
50738;DHT22;36703;48.154;17.126;2023-04-06T23:25:08;10.80;36.00
50738;DHT22;36703;48.154;17.126;2023-04-06T23:29:09;10.70;36.10
50738;DHT22;36703;48.154;17.126;2023-04-06T23:33:11;10.70;36.20
50738;DHT22;36703;48.154;17.126;2023-04-06T23:37:12;10.70;36.40
50738;DHT22;36703;48.154;17.126;2023-04-06T23:41:13;10.60;36.30
50738;DHT22;36703;48.154;17.126;2023-04-06T23:45:18;10.60;36.40
50738;DHT22;36703;48.154;17.126;2023-04-06T23:49:19;10.60;36.40
50738;DHT22;36703;48.154;17.126;2023-04-06T23:53:20;10.60;36.50
50738;DHT22;36703;48.154;17.126;2023-04-06T23:57:22;10.50;36.60
